createdAt,value
2022-08-11T00:01:25.753Z,81.3
2022-08-11T00:03:52.374Z,81
2022-08-11T00:06:17.506Z,81.1
2022-08-11T00:08:44.122Z,81.5
2022-08-11T00:11:10.738Z,81.8
2022-08-11T00:13:37.360Z,81.9
2022-08-11T00:16:03.988Z,81.4
2022-08-11T00:18:30.626Z,82
2022-08-11T00:20:57.236Z,82.4
2022-08-11T00:23:23.853Z,82.6
2022-08-11T00:25:50.481Z,82.1
2022-08-11T00:28:17.101Z,82.8
2022-08-11T00:30:43.723Z,83.4
2022-08-11T00:33:10.338Z,83
2022-08-11T00:38:03.592Z,83.8
2022-08-11T00:40:28.711Z,83.7
2022-08-11T00:42:55.334Z,84.2
2022-08-11T00:45:21.957Z,84.1
2022-08-11T00:47:48.590Z,85.4
2022-08-11T00:50:15.200Z,84.2
2022-08-11T00:52:41.832Z,86
2022-08-11T00:55:08.467Z,85.6
2022-08-11T00:57:35.069Z,84.5
2022-08-11T01:00:01.701Z,84.6
2022-08-11T01:02:28.324Z,84.5
2022-08-11T01:04:54.947Z,84.8
2022-08-11T01:07:21.566Z,84.8
2022-08-11T01:09:48.198Z,84.8
2022-08-11T01:12:13.322Z,85
2022-08-11T01:14:39.932Z,84.8
2022-08-11T01:17:06.569Z,85.4
2022-08-11T01:19:33.186Z,84.8
2022-08-11T01:21:59.802Z,85.1
2022-08-11T01:24:26.427Z,85.3
2022-08-11T01:26:53.052Z,85.5
2022-08-11T01:29:19.670Z,85.3
2022-08-11T01:31:46.309Z,85.4
2022-08-11T01:34:12.921Z,85.7
2022-08-11T01:36:39.541Z,86
2022-08-11T01:39:06.172Z,86.2
2022-08-11T01:41:32.781Z,86.2
2022-08-11T01:43:57.912Z,86.3
2022-08-11T01:46:24.529Z,86.3
2022-08-11T01:48:51.167Z,87.2
2022-08-11T01:51:17.773Z,86.7
2022-08-11T01:53:44.402Z,86.2
2022-08-11T01:56:11.031Z,86.2
2022-08-11T01:58:37.640Z,86.2
2022-08-11T02:01:04.273Z,86
2022-08-11T02:05:57.520Z,85.8
2022-08-11T02:08:24.141Z,86.2
2022-08-11T02:10:50.753Z,86.5
2022-08-11T02:13:17.378Z,86.9
2022-08-11T02:15:42.519Z,87.5
2022-08-11T02:18:09.129Z,87.5
2022-08-11T02:20:35.773Z,87.7
2022-08-11T02:23:02.385Z,87.3
2022-08-11T02:25:28.992Z,87.1
2022-08-11T02:27:55.621Z,87.1
2022-08-11T02:30:22.250Z,87.2
2022-08-11T02:32:48.882Z,87.4
2022-08-11T02:35:15.488Z,87.4
2022-08-11T02:37:42.115Z,87.5
2022-08-11T02:40:08.733Z,87.6
2022-08-11T02:42:35.369Z,88.1
2022-08-11T02:45:01.978Z,89.7
2022-08-11T02:47:27.103Z,89.5
2022-08-11T02:49:53.715Z,89.4
2022-08-11T02:52:20.347Z,89
2022-08-11T02:54:46.960Z,90.7
2022-08-11T02:57:13.587Z,92
2022-08-11T02:59:40.219Z,91.7
2022-08-11T03:02:06.834Z,91.6
2022-08-11T03:04:33.460Z,90.8
2022-08-11T03:07:00.084Z,90.2
2022-08-11T03:09:26.698Z,90.3
2022-08-11T03:11:53.326Z,90.6
2022-08-11T03:14:19.949Z,89.8
2022-08-11T03:16:46.580Z,89.5
2022-08-11T03:19:11.696Z,89.4
2022-08-11T03:21:38.326Z,89.7
2022-08-11T03:24:04.954Z,90.3
2022-08-11T03:26:31.567Z,90.4
2022-08-11T03:28:58.180Z,90
2022-08-11T03:31:24.818Z,89.9
2022-08-11T03:33:51.426Z,90
2022-08-11T03:36:18.048Z,89.9
2022-08-11T03:38:44.681Z,90.3
2022-08-11T03:41:11.290Z,90.2
2022-08-11T03:43:37.922Z,90.5
2022-08-11T03:46:04.564Z,90.8
2022-08-11T03:48:31.215Z,91.2
2022-08-11T03:50:56.305Z,91.5
2022-08-11T03:53:22.921Z,91.9
2022-08-11T03:55:49.541Z,91.9
2022-08-11T03:58:16.167Z,92
2022-08-11T04:00:42.788Z,91.7
2022-08-11T04:03:09.404Z,91.4
2022-08-11T04:05:36.043Z,91.6
2022-08-11T04:08:02.656Z,92.1
2022-08-11T04:10:29.286Z,92.1
2022-08-11T04:12:55.895Z,91.8
2022-08-11T04:15:22.572Z,91.5
2022-08-11T04:17:49.161Z,91.6
2022-08-11T04:20:15.773Z,92.1
2022-08-11T04:22:40.907Z,92.4
2022-08-11T04:25:07.534Z,92.2
2022-08-11T04:27:34.164Z,92.1
2022-08-11T04:32:27.392Z,92.8
2022-08-11T04:34:54.008Z,92.6
2022-08-11T04:37:20.629Z,92.1
2022-08-11T04:39:47.254Z,91.9
2022-08-11T04:42:12.387Z,92.1
2022-08-11T04:44:39.018Z,92.5
2022-08-11T04:47:05.638Z,92.7
2022-08-11T04:49:32.257Z,92.6
2022-08-11T04:51:58.872Z,91.8
2022-08-11T04:54:25.502Z,91.6
2022-08-11T04:56:52.119Z,91.6
2022-08-11T04:59:18.753Z,91.8
2022-08-11T05:01:45.365Z,92.3
2022-08-11T05:04:11.983Z,92.5
2022-08-11T05:06:38.618Z,92.6
2022-08-11T05:09:05.245Z,92.3
2022-08-11T05:11:31.848Z,92.8
2022-08-11T05:13:56.991Z,92.6
2022-08-11T05:16:23.602Z,92.8
2022-08-11T05:18:50.220Z,92.7
2022-08-11T05:21:16.851Z,92.4
2022-08-11T05:23:43.471Z,91.6
2022-08-11T05:26:10.092Z,91.2
2022-08-11T05:28:36.714Z,90.5
2022-08-11T05:31:03.350Z,90.2
2022-08-11T05:33:29.958Z,89.4
2022-08-11T05:35:56.596Z,89.7
2022-08-11T05:38:23.205Z,88.6
2022-08-11T05:40:49.831Z,87.7
2022-08-11T05:43:16.455Z,87
2022-08-11T05:45:41.576Z,86.5
2022-08-11T05:48:08.199Z,85.7
2022-08-11T05:50:34.834Z,85.3
2022-08-11T05:53:01.444Z,84.4
2022-08-11T05:55:28.080Z,83.5
2022-08-11T05:57:54.698Z,83.1
2022-08-11T06:00:21.333Z,83
2022-08-11T06:02:47.951Z,82.1
2022-08-11T06:05:14.552Z,80.5
2022-08-11T06:07:41.178Z,80.8
2022-08-11T06:10:07.798Z,80.4
2022-08-11T06:12:34.435Z,79.5
2022-08-11T06:15:01.049Z,79.7
2022-08-11T06:17:26.174Z,79.4
2022-08-11T06:19:52.805Z,79
2022-08-11T06:22:19.434Z,78.2
2022-08-11T06:24:46.046Z,77.6
2022-08-11T06:27:12.670Z,77.3
2022-08-11T06:29:39.296Z,75.3
2022-08-11T06:32:05.916Z,73.6
2022-08-11T06:34:32.541Z,71.8
2022-08-11T06:36:59.153Z,70.7
2022-08-11T06:39:25.776Z,71.9
2022-08-11T06:41:52.421Z,69.8
2022-08-11T06:44:19.021Z,69.3
2022-08-11T06:46:45.656Z,69.2
2022-08-11T06:49:10.774Z,68.1
2022-08-11T06:51:37.395Z,65.9
2022-08-11T06:54:04.049Z,66.2
2022-08-11T06:56:30.639Z,65.5
2022-08-11T06:58:57.269Z,64.3
2022-08-11T07:01:23.887Z,63
2022-08-11T07:03:50.517Z,61.1
2022-08-11T07:06:17.133Z,59.5
2022-08-11T07:08:43.763Z,59.5
2022-08-11T07:11:10.383Z,57.3
2022-08-11T07:13:37.010Z,53.7
2022-08-11T07:16:03.617Z,48
2022-08-11T07:18:30.245Z,43.4
2022-08-11T07:20:55.372Z,42
2022-08-11T07:23:21.989Z,40.3
2022-08-11T07:25:48.628Z,37.8
2022-08-11T07:28:15.231Z,36.9
2022-08-11T07:30:41.871Z,36.4
2022-08-11T07:33:08.482Z,35.1
2022-08-11T07:35:35.104Z,34.8
2022-08-11T07:38:01.733Z,33.8
2022-08-11T07:40:28.355Z,34.3
2022-08-11T07:42:54.978Z,34.1
2022-08-11T07:45:21.595Z,32.9
2022-08-11T07:47:48.250Z,30.2
2022-08-11T07:50:14.854Z,30.6
2022-08-11T07:52:39.996Z,29.6
2022-08-11T07:55:06.606Z,29.4
2022-08-11T07:57:33.221Z,28.3
2022-08-11T07:59:59.857Z,28.5
2022-08-11T08:02:26.471Z,29.4
2022-08-11T08:04:53.100Z,28.7
2022-08-11T08:07:19.710Z,28.8
2022-08-11T08:12:12.962Z,29.1
2022-08-11T08:14:39.598Z,28.7
2022-08-11T08:17:06.206Z,27.5
2022-08-11T08:19:32.831Z,27.4
2022-08-11T08:21:59.449Z,30.2
2022-08-11T08:24:26.087Z,30.7
2022-08-11T08:26:51.219Z,28.6
2022-08-11T08:29:17.817Z,28.7
2022-08-11T08:31:44.457Z,28.3
2022-08-11T08:34:11.096Z,27
2022-08-11T08:36:37.686Z,27
2022-08-11T08:39:04.327Z,26.5
2022-08-11T08:43:57.570Z,25.9
2022-08-11T08:46:24.189Z,28.1
2022-08-11T08:48:50.798Z,25.6
2022-08-11T08:51:17.486Z,25
2022-08-11T08:53:44.048Z,25.7
2022-08-11T08:56:10.679Z,26.4
2022-08-11T08:58:35.811Z,26.2
2022-08-11T09:01:02.431Z,26.7
2022-08-11T09:03:29.053Z,26.2
2022-08-11T09:05:55.665Z,25.9
2022-08-11T09:08:22.300Z,27.1
2022-08-11T09:10:48.907Z,27.1
2022-08-11T09:13:15.545Z,26
2022-08-11T09:15:42.175Z,26.5
2022-08-11T09:18:08.794Z,25
2022-08-11T09:20:35.414Z,25.3
2022-08-11T09:23:02.034Z,25.4
2022-08-11T09:25:28.652Z,24.9
2022-08-11T09:27:55.273Z,24.8
2022-08-11T09:30:20.420Z,24.6
2022-08-11T09:32:47.040Z,25.5
2022-08-11T09:35:13.658Z,24.8
2022-08-11T09:37:40.288Z,25
2022-08-11T09:40:06.903Z,26.3
2022-08-11T09:42:33.525Z,25.1
2022-08-11T09:45:00.142Z,24.7
2022-08-11T09:47:26.766Z,25.5
2022-08-11T09:49:53.387Z,24.6
2022-08-11T09:52:20.024Z,25.6
2022-08-11T09:54:46.637Z,25.3
2022-08-11T09:57:13.264Z,26
2022-08-11T10:02:06.514Z,25.8
2022-08-11T10:04:31.643Z,26.1
2022-08-11T10:06:58.273Z,26.5
2022-08-11T10:11:51.531Z,27.3
2022-08-11T10:14:18.143Z,27.5
2022-08-11T10:16:44.772Z,27.1
2022-08-11T10:19:11.389Z,27.7
2022-08-11T10:21:38.020Z,26.5
2022-08-11T10:24:04.647Z,26.5
2022-08-11T10:26:31.260Z,24.8
2022-08-11T10:28:57.876Z,24.4
2022-08-11T10:33:51.148Z,23.8
2022-08-11T10:36:17.750Z,24.6
2022-08-11T10:38:42.902Z,23.6
2022-08-11T10:41:08.022Z,24.8
2022-08-11T10:43:34.628Z,24.8
2022-08-11T10:46:01.254Z,27.6
2022-08-11T10:48:27.882Z,28.4
2022-08-11T10:50:54.508Z,27.8
2022-08-11T10:53:21.133Z,28.8
2022-08-11T10:55:47.750Z,29
2022-08-11T10:58:14.385Z,27.5
2022-08-11T11:00:40.998Z,27.7
2022-08-11T11:03:07.632Z,29.5
2022-08-11T11:05:34.249Z,27.8
2022-08-11T11:07:59.389Z,28.8
2022-08-11T11:10:24.515Z,28.7
2022-08-11T11:12:51.132Z,28.4
2022-08-11T11:15:17.768Z,27.6
2022-08-11T11:17:44.372Z,28
2022-08-11T11:20:11.003Z,29.1
2022-08-11T11:22:37.623Z,28.1
2022-08-11T11:25:04.251Z,28.2
2022-08-11T11:27:30.882Z,27.6
2022-08-11T11:29:57.496Z,27.4
2022-08-11T11:32:24.114Z,27.9
2022-08-11T11:34:50.743Z,27.7
2022-08-11T11:37:17.379Z,27.3
2022-08-11T11:39:44.004Z,27.6
2022-08-11T11:42:09.123Z,28
2022-08-11T11:44:35.747Z,27.8
2022-08-11T11:47:02.377Z,27.7
2022-08-11T11:49:28.997Z,28
2022-08-11T11:51:55.627Z,28.9
2022-08-11T11:54:22.236Z,28.7
2022-08-11T11:56:48.867Z,27.4
2022-08-11T11:59:15.493Z,27.8
2022-08-11T12:01:42.112Z,29
2022-08-11T12:04:08.773Z,28.3
2022-08-11T12:06:35.374Z,27
2022-08-11T12:09:01.989Z,27.5
2022-08-11T12:11:28.613Z,28.2
2022-08-11T12:13:55.242Z,26.9
2022-08-11T12:16:20.370Z,28.1
2022-08-11T12:18:46.983Z,27.6
2022-08-11T12:21:13.609Z,27.5
2022-08-11T12:23:40.221Z,29.4
2022-08-11T12:26:06.854Z,28.1
2022-08-11T12:28:33.477Z,27.6
2022-08-11T12:31:00.109Z,27.2
2022-08-11T12:35:53.353Z,27.7
2022-08-11T12:38:19.966Z,26.6
2022-08-11T12:40:46.597Z,27.1
2022-08-11T12:43:13.234Z,27
2022-08-11T12:45:39.842Z,27.7
2022-08-11T12:48:06.480Z,28.4
2022-08-11T12:50:31.591Z,28.2
2022-08-11T12:52:56.745Z,26.4
2022-08-11T12:55:23.354Z,27.3
2022-08-11T12:57:49.981Z,27.3
2022-08-11T13:00:16.599Z,26.6
2022-08-11T13:02:43.288Z,26.6
2022-08-11T13:05:09.865Z,26.6
2022-08-11T13:07:36.476Z,27
2022-08-11T13:12:29.729Z,27.4
2022-08-11T13:14:56.351Z,27.1
2022-08-11T13:17:22.973Z,28.8
2022-08-11T13:19:49.588Z,27.6
2022-08-11T13:22:16.233Z,26.2
2022-08-11T13:24:41.362Z,26
2022-08-11T13:27:07.973Z,27.3
2022-08-11T13:29:34.615Z,26.2
2022-08-11T13:32:01.234Z,27.5
2022-08-11T13:34:27.838Z,27.7
2022-08-11T13:36:54.484Z,27.4
2022-08-11T13:39:21.102Z,26.6
2022-08-11T13:41:47.728Z,25.9
2022-08-11T13:44:14.348Z,25.6
2022-08-11T13:46:40.967Z,26.1
2022-08-11T13:49:07.589Z,27.1
2022-08-11T13:51:34.217Z,26.3
2022-08-11T13:54:00.847Z,26.7
2022-08-11T13:56:25.965Z,26.7
2022-08-11T13:58:52.601Z,26.1
2022-08-11T14:01:19.223Z,27.7
2022-08-11T14:03:45.843Z,27.1
2022-08-11T14:06:12.478Z,27.1
2022-08-11T14:08:39.089Z,27.8
2022-08-11T14:11:05.721Z,26.9
2022-08-11T14:13:32.346Z,26.8
2022-08-11T14:15:58.970Z,26.3
2022-08-11T14:18:25.598Z,26.6
2022-08-11T14:20:52.213Z,27.1
2022-08-11T14:23:18.846Z,27.5
2022-08-11T14:25:45.462Z,27.7
2022-08-11T14:28:10.600Z,27.4
2022-08-11T14:30:37.215Z,27.7
2022-08-11T14:33:03.850Z,27.1
2022-08-11T14:35:30.462Z,27.4
2022-08-11T14:37:57.085Z,27.2
2022-08-11T14:40:23.717Z,26.7
2022-08-11T14:42:50.330Z,26.4
2022-08-11T14:45:16.971Z,26.1
2022-08-11T14:47:43.580Z,27.3
2022-08-11T14:50:10.202Z,26.4
2022-08-11T14:52:36.832Z,27
2022-08-11T14:55:03.465Z,27.9
2022-08-11T14:57:30.076Z,27.4
2022-08-11T14:59:56.699Z,27.7
2022-08-11T15:02:21.829Z,28.4
2022-08-11T15:04:48.467Z,28.3
2022-08-11T15:07:15.090Z,27.9
2022-08-11T15:09:41.704Z,27.5
2022-08-11T15:12:08.339Z,28.9
2022-08-11T15:14:34.956Z,28.7
2022-08-11T15:17:01.578Z,28.3
2022-08-11T15:19:28.207Z,28.7
2022-08-11T15:21:54.823Z,29.6
2022-08-11T15:24:21.447Z,27.9
2022-08-11T15:26:48.062Z,29
2022-08-11T15:29:14.696Z,28.5
2022-08-11T15:31:41.349Z,28.5
2022-08-11T15:34:06.451Z,28.8
2022-08-11T15:36:33.081Z,28.3
2022-08-11T15:38:59.702Z,28.2
2022-08-11T15:41:26.323Z,29.7
2022-08-11T15:43:52.948Z,29.4
2022-08-11T15:46:19.563Z,28.9
2022-08-11T15:48:46.184Z,28.9
2022-08-11T15:51:12.806Z,27.9
2022-08-11T15:53:39.437Z,29.1
2022-08-11T15:56:06.062Z,28.6
2022-08-11T15:58:32.696Z,27.9
2022-08-11T16:00:59.305Z,28.1
2022-08-11T16:03:25.936Z,28.1
2022-08-11T16:05:51.083Z,28.7
2022-08-11T16:08:17.686Z,29.3
2022-08-11T16:10:44.302Z,29.2
2022-08-11T16:13:10.927Z,28.4
2022-08-11T16:15:37.546Z,28.4
2022-08-11T16:18:04.181Z,28.1
2022-08-11T16:20:30.801Z,29.9
2022-08-11T16:22:57.425Z,30
2022-08-11T16:25:24.050Z,29.8
2022-08-11T16:27:50.694Z,29
2022-08-11T16:30:17.300Z,30.7
2022-08-11T16:32:43.916Z,30.9
2022-08-11T16:35:10.535Z,28.4
2022-08-11T16:37:35.669Z,30.5
2022-08-11T16:40:02.290Z,30.5
2022-08-11T16:42:28.923Z,29.6
2022-08-11T16:44:55.523Z,28.8
2022-08-11T16:47:22.178Z,29.6
2022-08-11T16:49:48.773Z,29.6
2022-08-11T16:52:15.404Z,30.5
2022-08-11T16:54:41.771Z,30.6
2022-08-11T16:57:08.395Z,29.4
2022-08-11T16:59:35.023Z,29.4
2022-08-11T17:02:01.640Z,29.6
2022-08-11T17:04:28.277Z,28.9
2022-08-11T17:06:54.890Z,29.4
2022-08-11T17:09:20.021Z,30.4
2022-08-11T17:11:46.649Z,30.4
2022-08-11T17:14:13.264Z,29.8
2022-08-11T17:16:39.881Z,30.5
2022-08-11T17:19:06.510Z,30.3
2022-08-11T17:21:33.139Z,30.5
2022-08-11T17:23:59.755Z,29.8
2022-08-11T17:26:26.382Z,29.9
2022-08-11T17:28:52.996Z,29.6
2022-08-11T17:31:19.648Z,29.7
2022-08-11T17:33:46.264Z,29.4
2022-08-11T17:36:12.878Z,30.2
2022-08-11T17:38:39.496Z,30.8
2022-08-11T17:41:06.147Z,29.9
2022-08-11T17:43:31.249Z,31.1
2022-08-11T17:45:57.877Z,33
2022-08-11T17:48:24.520Z,32.5
2022-08-11T17:50:51.134Z,31.9
2022-08-11T17:53:17.751Z,32.2
2022-08-11T17:55:44.395Z,32.1
2022-08-11T17:58:11.011Z,32.5
2022-08-11T18:00:37.628Z,32.6
2022-08-11T18:03:04.247Z,33.9
2022-08-11T18:05:30.873Z,33
2022-08-11T18:07:57.484Z,33.6
2022-08-11T18:12:50.741Z,34.5
2022-08-11T18:15:15.863Z,33
2022-08-11T18:17:42.492Z,33.5
2022-08-11T18:20:09.112Z,33.8
2022-08-11T18:22:35.746Z,34.5
2022-08-11T18:25:02.364Z,33.3
2022-08-11T18:27:28.990Z,34.1
2022-08-11T18:29:55.608Z,34.4
2022-08-11T18:32:22.226Z,36.2
2022-08-11T18:34:48.851Z,37.1
2022-08-11T18:37:15.477Z,37.2
2022-08-11T18:39:42.115Z,38.4
2022-08-11T18:42:08.727Z,39.5
2022-08-11T18:44:35.347Z,40.7
2022-08-11T18:47:00.482Z,41.3
2022-08-11T18:49:27.103Z,43.9
2022-08-11T18:51:53.720Z,44.3
2022-08-11T18:54:20.375Z,45.7
2022-08-11T18:56:46.982Z,46.1
2022-08-11T18:59:13.601Z,46.7
2022-08-11T19:01:40.212Z,47
2022-08-11T19:04:06.834Z,48
2022-08-11T19:06:33.457Z,46.5
2022-08-11T19:09:00.080Z,46.8
2022-08-11T19:11:26.704Z,48.3
2022-08-11T19:13:53.342Z,48.7
2022-08-11T19:16:19.959Z,49.4
2022-08-11T19:18:45.092Z,49.8
2022-08-11T19:21:11.711Z,50.5
2022-08-11T19:23:38.341Z,51.1
2022-08-11T19:26:04.957Z,52.2
2022-08-11T19:28:31.567Z,52.6
2022-08-11T19:30:58.196Z,53.9
2022-08-11T19:33:24.822Z,54.3
2022-08-11T19:35:51.451Z,53.1
2022-08-11T19:38:17.094Z,54
2022-08-11T19:40:43.710Z,55.5
2022-08-11T19:43:10.322Z,55.7
2022-08-11T19:45:36.952Z,56.3
2022-08-11T19:48:03.565Z,55.6
2022-08-11T19:50:30.187Z,56.4
2022-08-11T19:52:55.331Z,55.7
2022-08-11T19:55:21.946Z,57.2
2022-08-11T19:57:48.574Z,57.2
2022-08-11T20:00:15.193Z,58
2022-08-11T20:02:41.827Z,58.4
2022-08-11T20:05:08.445Z,60
2022-08-11T20:07:35.059Z,59.1
2022-08-11T20:10:01.696Z,60.1
2022-08-11T20:12:28.302Z,62.4
2022-08-11T20:14:54.923Z,62.8
2022-08-11T20:17:21.556Z,62.5
2022-08-11T20:19:48.171Z,61
2022-08-11T20:24:41.421Z,62.1
2022-08-11T20:27:06.549Z,63
2022-08-11T20:29:33.176Z,63.1
2022-08-11T20:31:59.789Z,61.6
2022-08-11T20:34:26.427Z,61.7
2022-08-11T20:36:53.040Z,63.8
2022-08-11T20:39:19.658Z,63.8
2022-08-11T20:41:46.296Z,62.9
2022-08-11T20:44:12.911Z,63.7
2022-08-11T20:46:39.544Z,64.4
2022-08-11T20:49:06.173Z,64.1
2022-08-11T20:51:32.798Z,63.9
2022-08-11T20:53:59.436Z,63.6
2022-08-11T20:56:26.055Z,64.8
2022-08-11T20:58:51.172Z,64.9
2022-08-11T21:01:17.795Z,65
2022-08-11T21:03:42.915Z,64.8
2022-08-11T21:06:09.551Z,66.1
2022-08-11T21:08:36.163Z,65
2022-08-11T21:11:02.786Z,65
2022-08-11T21:13:29.406Z,64.4
2022-08-11T21:15:56.014Z,65.5
2022-08-11T21:18:22.666Z,65.1
2022-08-11T21:20:49.268Z,64.7
2022-08-11T21:23:15.901Z,64.6
2022-08-11T21:25:42.510Z,65.9
2022-08-11T21:28:09.141Z,65.6
2022-08-11T21:30:35.754Z,66.4
2022-08-11T21:33:02.386Z,66.2
2022-08-11T21:35:27.528Z,66.9
2022-08-11T21:37:54.131Z,66.7
2022-08-11T21:40:20.549Z,66.3
2022-08-11T21:42:47.156Z,66.9
2022-08-11T21:45:13.788Z,66.8
2022-08-11T21:47:40.418Z,66.6
2022-08-11T21:50:07.044Z,67
2022-08-11T21:52:33.653Z,67.5
2022-08-11T21:55:00.295Z,67.8
2022-08-11T21:57:26.896Z,68.6
2022-08-11T21:59:53.530Z,68.5
2022-08-11T22:02:20.148Z,69.3
2022-08-11T22:07:13.393Z,69.3
2022-08-11T22:09:38.516Z,70.8
2022-08-11T22:12:05.142Z,70.5
2022-08-11T22:14:31.781Z,66.9
2022-08-11T22:16:58.398Z,68.1
2022-08-11T22:19:25.023Z,70.5
2022-08-11T22:21:51.637Z,71.8
2022-08-11T22:24:18.262Z,70.9
2022-08-11T22:26:44.876Z,70.9
2022-08-11T22:29:11.499Z,72.9
2022-08-11T22:31:38.126Z,70.9
2022-08-11T22:34:04.775Z,72.1
2022-08-11T22:36:31.358Z,70
2022-08-11T22:38:57.991Z,69.7
2022-08-11T22:41:23.128Z,69.5
2022-08-11T22:43:49.737Z,70.3
2022-08-11T22:46:16.371Z,69.7
2022-08-11T22:48:43.002Z,70.4
2022-08-11T22:51:09.604Z,70.3
2022-08-11T22:53:36.253Z,71
2022-08-11T22:56:02.855Z,71.5
2022-08-11T22:58:29.471Z,71.6
2022-08-11T23:00:55.255Z,71.9
2022-08-11T23:03:21.876Z,72
2022-08-11T23:05:48.508Z,71.6
2022-08-11T23:08:15.139Z,71.9
2022-08-11T23:10:41.740Z,72
2022-08-11T23:13:06.878Z,72.8
2022-08-11T23:15:33.495Z,73.1
2022-08-11T23:18:00.125Z,73.4
2022-08-11T23:20:26.751Z,73
2022-08-11T23:22:53.376Z,72.7
2022-08-11T23:25:19.999Z,73.2
2022-08-11T23:27:46.616Z,73.3
2022-08-11T23:30:13.235Z,74.5
2022-08-11T23:35:06.485Z,74.5
2022-08-11T23:37:33.112Z,75
2022-08-11T23:39:59.732Z,75.3
2022-08-11T23:42:26.354Z,75
2022-08-11T23:44:51.479Z,75.5
2022-08-11T23:47:18.102Z,75.5
2022-08-11T23:49:44.727Z,75.3
2022-08-11T23:52:11.361Z,74.7
2022-08-11T23:54:37.973Z,75.5
2022-08-11T23:57:04.594Z,75.7
2022-08-11T23:59:31.224Z,75.9
